Time;durP1;ratioP1;P1;durP2;ratioP2;P2;SDS_P1;SDS_P2;PMS_P1;PMS_P2;Temp;Humidity;BMP_temperature;BMP_pressure;BME280_temperature;BME280_humidity;BME280_pressure;Samples;Min_cycle;Max_cycle;Signal;HPM_P1;HPM_P2
2024/04/08 00:01:23;;;;;;;;;;;22.60;53.00;;;;;;4993888;28;19914;-79
2024/04/08 00:03:48;;;;;;;;;;;22.60;53.00;;;;;;4993779;28;20360;-79
2024/04/08 00:06:14;;;;;;;;;;;22.60;53.00;;;;;;4993770;28;20005;-79
2024/04/08 00:08:39;;;;;;;;;;;22.50;53.10;;;;;;4993655;28;19918;-79
2024/04/08 00:11:06;;;;;;;;;;;22.50;53.10;;;;;;4993801;28;20292;-79
2024/04/08 00:13:33;;;;;;;;;;;22.60;53.20;;;;;;4993747;28;20493;-79
2024/04/08 00:15:59;;;;;;;;;;;22.60;53.00;;;;;;4993676;28;19910;-79
2024/04/08 00:18:25;;;;;;;;;;;22.60;53.10;;;;;;4993603;28;20364;-79
2024/04/08 00:21:00;;;;;;;;;;;22.50;53.20;;;;;;4993524;28;19917;-79
2024/04/08 00:23:25;;;;;;;;;;;22.50;52.10;;;;;;4993673;28;20273;-79
2024/04/08 00:25:51;;;;;;;;;;;22.50;53.00;;;;;;4993486;28;19910;-79
2024/04/08 00:28:16;;;;;;;;;;;22.50;53.00;;;;;;4993742;28;20052;-79
2024/04/08 00:30:42;;;;;;;;;;;22.50;53.10;;;;;;4993252;28;19910;-80
2024/04/08 00:33:07;;;;;;;;;;;22.50;53.20;;;;;;4993260;28;19937;-79
2024/04/08 00:35:33;;;;;;;;;;;22.50;53.10;;;;;;4993150;28;19910;-79
2024/04/08 00:37:58;;;;;;;;;;;22.50;52.60;;;;;;4992982;28;20265;-79
2024/04/08 00:40:24;;;;;;;;;;;22.50;53.30;;;;;;4993249;28;19990;-79
2024/04/08 00:42:52;;;;;;;;;;;22.50;53.20;;;;;;4993033;28;20293;-84
2024/04/08 00:45:18;;;;;;;;;;;22.50;53.10;;;;;;4993019;28;19914;-79
2024/04/08 00:47:44;;;;;;;;;;;22.50;53.40;;;;;;4993061;28;20375;-79
2024/04/08 00:50:11;;;;;;;;;;;22.50;53.00;;;;;;4992887;28;19917;-79
2024/04/08 00:52:37;;;;;;;;;;;22.50;53.10;;;;;;4993031;28;19917;-79
2024/04/08 00:55:03;;;;;;;;;;;22.60;53.10;;;;;;4993713;28;19916;-79
2024/04/08 00:57:29;;;;;;;;;;;22.50;53.10;;;;;;4992961;28;19992;-79
2024/04/08 00:59:55;;;;;;;;;;;22.50;52.90;;;;;;4992771;28;19980;-79
2024/04/08 01:02:20;;;;;;;;;;;22.50;53.30;;;;;;4992871;28;20357;-79
2024/04/08 01:04:47;;;;;;;;;;;22.20;53.20;;;;;;4992809;28;20360;-79
2024/04/08 01:07:12;;;;;;;;;;;22.50;53.10;;;;;;4992913;28;19910;-79
2024/04/08 01:09:38;;;;;;;;;;;22.50;53.30;;;;;;4992493;28;20076;-79
2024/04/08 01:12:03;;;;;;;;;;;22.50;53.40;;;;;;4992745;28;20492;-79
2024/04/08 01:14:29;;;;;;;;;;;22.50;53.80;;;;;;4992604;28;19910;-79
2024/04/08 01:16:54;;;;;;;;;;;22.40;53.30;;;;;;4992595;28;19916;-79
2024/04/08 01:19:23;;;;;;;;;;;22.50;53.40;;;;;;4992708;28;19980;-79
2024/04/08 01:21:49;;;;;;;;;;;22.50;53.20;;;;;;4992865;28;19910;-79
2024/04/08 01:24:14;;;;;;;;;;;21.60;52.60;;;;;;4993141;28;19913;-79
2024/04/08 01:26:40;;;;;;;;;;;22.50;53.20;;;;;;4992511;28;19910;-79
2024/04/08 01:29:06;;;;;;;;;;;22.50;53.40;;;;;;4992706;28;20063;-79
2024/04/08 01:31:31;;;;;;;;;;;22.40;53.30;;;;;;4992443;28;20380;-79
2024/04/08 01:33:57;;;;;;;;;;;22.40;53.20;;;;;;4992601;28;20004;-79
2024/04/08 01:36:22;;;;;;;;;;;22.40;53.20;;;;;;4992398;28;20349;-79
2024/04/08 01:38:48;;;;;;;;;;;22.40;53.30;;;;;;4992441;28;19964;-79
2024/04/08 01:41:13;;;;;;;;;;;22.40;53.50;;;;;;4992502;28;20365;-79
2024/04/08 01:43:39;;;;;;;;;;;22.30;53.40;;;;;;4992414;28;19910;-79
2024/04/08 01:46:05;;;;;;;;;;;22.40;53.40;;;;;;4991061;28;20317;-79
2024/04/08 01:48:31;;;;;;;;;;;22.40;53.20;;;;;;4992370;28;19913;-79
2024/04/08 01:50:56;;;;;;;;;;;22.40;53.60;;;;;;4992326;28;20327;-79
2024/04/08 01:53:22;;;;;;;;;;;22.40;53.40;;;;;;4992852;28;20373;-79
2024/04/08 01:55:47;;;;;;;;;;;22.00;53.20;;;;;;4992213;28;19914;-79
2024/04/08 01:58:13;;;;;;;;;;;22.40;53.50;;;;;;4992347;28;19917;-79
2024/04/08 02:00:38;;;;;;;;;;;22.30;53.50;;;;;;4992210;28;19916;-79
2024/04/08 02:03:04;;;;;;;;;;;22.30;53.40;;;;;;4992344;28;20052;-79
2024/04/08 02:05:29;;;;;;;;;;;22.30;53.50;;;;;;4992374;28;19934;-79
2024/04/08 02:07:55;;;;;;;;;;;22.30;53.60;;;;;;4992014;28;19910;-79
2024/04/08 02:10:20;;;;;;;;;;;22.30;53.40;;;;;;4992515;28;19993;-79
2024/04/08 02:12:49;;;;;;;;;;;22.30;53.70;;;;;;4992116;28;20327;-79
2024/04/08 02:15:15;;;;;;;;;;;22.30;52.80;;;;;;4992142;28;19917;-79
2024/04/08 02:17:41;;;;;;;;;;;22.30;53.80;;;;;;4995747;28;19910;-83
2024/04/08 02:20:08;;;;;;;;;;;22.30;53.60;;;;;;4995811;28;19917;-79
2024/04/08 02:22:34;;;;;;;;;;;22.30;53.50;;;;;;4996248;28;19916;-79
2024/04/08 02:25:00;;;;;;;;;;;22.30;53.50;;;;;;4995670;28;19968;-80
2024/04/08 02:27:25;;;;;;;;;;;22.30;53.60;;;;;;4995676;28;20296;-79
2024/04/08 02:29:51;;;;;;;;;;;22.30;53.80;;;;;;5010627;28;19918;-79
2024/04/08 02:32:16;;;;;;;;;;;22.30;53.60;;;;;;4995887;28;20368;-79
2024/04/08 02:34:42;;;;;;;;;;;22.30;53.80;;;;;;4995430;28;19914;-79
2024/04/08 02:37:07;;;;;;;;;;;22.30;53.10;;;;;;4995184;28;19926;-79
2024/04/08 02:39:33;;;;;;;;;;;22.20;53.70;;;;;;4995518;28;19985;-79
2024/04/08 02:41:58;;;;;;;;;;;22.30;53.90;;;;;;4995386;28;20001;-79
2024/04/08 02:44:24;;;;;;;;;;;22.20;53.70;;;;;;4994023;28;19917;-79
2024/04/08 02:46:49;;;;;;;;;;;22.20;53.80;;;;;;4995168;28;20264;-79
2024/04/08 02:49:15;;;;;;;;;;;22.20;53.10;;;;;;4995650;28;19918;-76
2024/04/08 02:51:40;;;;;;;;;;;22.20;54.00;;;;;;4995188;28;20325;-76
2024/04/08 02:54:06;;;;;;;;;;;22.20;53.80;;;;;;4995092;28;20397;-76
2024/04/08 02:56:32;;;;;;;;;;;22.20;53.90;;;;;;4995388;28;19916;-76
2024/04/08 02:58:57;;;;;;;;;;;22.20;53.80;;;;;;4994995;28;19931;-77
2024/04/08 03:01:23;;;;;;;;;;;22.20;53.90;;;;;;4995184;28;19910;-77
2024/04/08 03:03:48;;;;;;;;;;;22.20;53.70;;;;;;4995063;28;19910;-76
2024/04/08 03:06:15;;;;;;;;;;;22.20;53.90;;;;;;4995140;28;19910;-76
2024/04/08 03:08:41;;;;;;;;;;;22.20;53.80;;;;;;4995061;28;19926;-77
2024/04/08 03:11:07;;;;;;;;;;;22.20;53.80;;;;;;4994920;28;19910;-76
2024/04/08 03:13:34;;;;;;;;;;;22.10;53.70;;;;;;4995095;28;19933;-76
2024/04/08 03:16:00;;;;;;;;;;;22.20;53.60;;;;;;4994539;28;19917;-76
2024/04/08 03:18:25;;;;;;;;;;;22.20;53.50;;;;;;4995449;28;19910;-79
2024/04/08 03:21:01;;;;;;;;;;;22.10;54.20;;;;;;4994636;28;20469;-79
2024/04/08 03:23:26;;;;;;;;;;;22.20;52.80;;;;;;4994578;28;20013;-79
2024/04/08 03:26:02;;;;;;;;;;;22.20;54.00;;;;;;4994590;28;19957;-79
2024/04/08 03:28:28;;;;;;;;;;;22.20;52.90;;;;;;4993385;28;20413;-80
2024/04/08 03:30:53;;;;;;;;;;;22.60;54.40;;;;;;4994519;28;19957;-80
2024/04/08 03:33:19;;;;;;;;;;;22.10;54.00;;;;;;4994358;28;20373;-80
2024/04/08 03:35:45;;;;;;;;;;;22.20;54.10;;;;;;4994390;28;19909;-80
2024/04/08 03:38:10;;;;;;;;;;;22.20;53.50;;;;;;4993973;28;20333;-80
2024/04/08 03:40:36;;;;;;;;;;;22.10;54.10;;;;;;4994358;28;19914;-80
2024/04/08 03:43:01;;;;;;;;;;;22.10;54.10;;;;;;4994162;28;20292;-79
2024/04/08 03:45:27;;;;;;;;;;;22.10;54.10;;;;;;4994218;28;19956;-80
2024/04/08 03:47:52;;;;;;;;;;;22.10;54.30;;;;;;4994740;28;20008;-79
2024/04/08 03:50:18;;;;;;;;;;;22.10;54.20;;;;;;5009023;28;19917;-80
2024/04/08 03:54:25;;;;;;;;;;;22.10;52.30;;;;;;5543564;25;19979;-79
2024/04/08 03:56:50;;;;;;;;;;;22.10;54.10;;;;;;5543711;25;19934;-80
2024/04/08 03:59:16;;;;;;;;;;;22.10;54.00;;;;;;5543772;25;20372;-79
2024/04/08 04:01:42;;;;;;;;;;;22.10;53.20;;;;;;5862962;21;19932;-73
2024/04/08 04:07:10;;;;;;;;;;;22.10;52.90;;;;;;5470419;26;19932;-72
2024/04/08 04:09:36;;;;;;;;;;;22.10;53.90;;;;;;5469946;26;19929;-70
2024/04/08 04:12:03;;;;;;;;;;;22.10;53.80;;;;;;5470055;26;20367;-72
2024/04/08 04:14:29;;;;;;;;;;;22.10;53.70;;;;;;5470609;26;19936;-72
2024/04/08 04:16:54;;;;;;;;;;;22.10;53.90;;;;;;5470548;26;19997;-72
2024/04/08 04:19:20;;;;;;;;;;;22.10;53.80;;;;;;5470508;26;19928;-72
2024/04/08 04:21:45;;;;;;;;;;;22.10;54.00;;;;;;5470460;26;20265;-72
2024/04/08 04:24:11;;;;;;;;;;;22.10;54.10;;;;;;5470292;26;19936;-72
2024/04/08 04:26:36;;;;;;;;;;;22.10;53.90;;;;;;5469992;26;19940;-70
2024/04/08 04:29:02;;;;;;;;;;;22.10;54.10;;;;;;5469998;26;19938;-71
2024/04/08 04:31:40;;;;;;;;;;;22.00;54.00;;;;;;5438206;26;19929;-71
2024/04/08 04:34:05;;;;;;;;;;;22.00;53.70;;;;;;5469849;26;20363;-71
2024/04/08 04:36:31;;;;;;;;;;;22.00;53.90;;;;;;5470012;26;19928;-71
2024/04/08 04:38:56;;;;;;;;;;;22.00;54.10;;;;;;5469525;26;19937;-71
2024/04/08 04:41:22;;;;;;;;;;;22.00;54.20;;;;;;5469377;26;19929;-71
2024/04/08 04:43:47;;;;;;;;;;;22.00;54.00;;;;;;5469408;26;19928;-71
2024/04/08 04:46:12;;;;;;;;;;;22.00;54.00;;;;;;5469482;26;19997;-71
2024/04/08 04:48:38;;;;;;;;;;;22.00;54.00;;;;;;5469832;26;19957;-71
2024/04/08 04:51:04;;;;;;;;;;;22.00;54.00;;;;;;5469316;26;19961;-71
2024/04/08 04:53:29;;;;;;;;;;;22.00;53.90;;;;;;5469199;26;19935;-80
2024/04/08 04:55:56;;;;;;;;;;;22.00;54.00;;;;;;5468897;26;19935;-80
2024/04/08 04:58:22;;;;;;;;;;;22.00;53.90;;;;;;5468681;26;20001;-80
2024/04/08 05:00:49;;;;;;;;;;;21.90;54.40;;;;;;5468513;26;20275;-80
2024/04/08 05:03:15;;;;;;;;;;;22.00;53.50;;;;;;5468741;26;19997;-81
2024/04/08 05:05:41;;;;;;;;;;;21.90;54.40;;;;;;5452199;26;19929;-79
2024/04/08 05:08:07;;;;;;;;;;;21.90;53.40;;;;;;5453664;26;19992;-80
2024/04/08 05:10:33;;;;;;;;;;;21.90;54.20;;;;;;5453192;26;20377;-79
2024/04/08 05:12:58;;;;;;;;;;;21.80;54.00;;;;;;5452827;26;19935;-79
2024/04/08 05:15:26;;;;;;;;;;;21.90;54.20;;;;;;5453335;26;19929;-78
2024/04/08 05:17:51;;;;;;;;;;;21.90;54.20;;;;;;5453049;26;19936;-80
2024/04/08 05:20:17;;;;;;;;;;;21.90;54.10;;;;;;5453000;26;19928;-81
2024/04/08 05:22:47;;;;;;;;;;;21.90;54.10;;;;;;5453048;26;20387;-81
2024/04/08 05:25:12;;;;;;;;;;;21.90;54.10;;;;;;5453871;26;19955;-82
2024/04/08 05:27:38;;;;;;;;;;;21.70;53.60;;;;;;5452977;26;19980;-81
2024/04/08 05:30:05;;;;;;;;;;;21.80;54.30;;;;;;5452781;26;19932;-83
2024/04/08 05:32:30;;;;;;;;;;;21.80;54.10;;;;;;5452877;26;20378;-81
2024/04/08 05:34:56;;;;;;;;;;;21.80;54.30;;;;;;5452933;26;19933;-82
2024/04/08 05:37:21;;;;;;;;;;;21.90;54.20;;;;;;5451357;26;19929;-82
2024/04/08 05:39:47;;;;;;;;;;;21.80;54.30;;;;;;5452833;26;19928;-78
2024/04/08 05:42:12;;;;;;;;;;;21.80;54.10;;;;;;5452639;26;19977;-77
2024/04/08 05:44:38;;;;;;;;;;;21.80;54.20;;;;;;5452774;26;20293;-78
2024/04/08 05:47:04;;;;;;;;;;;21.80;54.20;;;;;;5452552;26;19928;-76
2024/04/08 05:49:29;;;;;;;;;;;21.80;54.70;;;;;;5452655;26;19940;-79
2024/04/08 05:51:55;;;;;;;;;;;21.80;54.30;;;;;;5452153;26;19928;-77
2024/04/08 05:54:20;;;;;;;;;;;21.70;54.20;;;;;;5452578;26;19929;-78
2024/04/08 05:56:46;;;;;;;;;;;21.80;54.30;;;;;;5455969;26;19935;-75
2024/04/08 05:59:12;;;;;;;;;;;21.80;54.20;;;;;;5453491;26;19929;-77
2024/04/08 06:01:38;;;;;;;;;;;21.80;54.30;;;;;;5458211;26;19974;-77
2024/04/08 06:04:04;;;;;;;;;;;21.80;54.10;;;;;;5452999;26;20255;-75
2024/04/08 06:06:30;;;;;;;;;;;21.80;54.10;;;;;;5452352;26;19928;-76
2024/04/08 06:09:05;;;;;;;;;;;21.80;54.30;;;;;;5452278;26;19962;-81
2024/04/08 06:11:47;;;;;;;;;;;21.70;53.20;;;;;;5449730;26;19929;-80
2024/04/08 06:14:13;;;;;;;;;;;21.80;54.30;;;;;;5451893;26;19993;-79
2024/04/08 06:16:39;;;;;;;;;;;21.70;54.30;;;;;;5451984;26;20258;-82
2024/04/08 06:19:05;;;;;;;;;;;21.70;54.40;;;;;;5452309;26;19928;-78
2024/04/08 06:21:31;;;;;;;;;;;21.70;54.40;;;;;;5455833;26;19935;-79
2024/04/08 06:23:57;;;;;;;;;;;21.70;54.30;;;;;;5452132;26;19960;-78
2024/04/08 06:26:23;;;;;;;;;;;21.70;54.60;;;;;;5451890;26;20061;-78
2024/04/08 06:28:49;;;;;;;;;;;21.70;54.80;;;;;;5451957;26;20343;-79
2024/04/08 06:31:15;;;;;;;;;;;21.70;54.60;;;;;;5451874;26;19929;-81
2024/04/08 06:33:41;;;;;;;;;;;21.70;54.10;;;;;;5451451;26;20007;-79
2024/04/08 06:36:08;;;;;;;;;;;21.70;54.70;;;;;;5451655;26;19932;-81
2024/04/08 06:38:33;;;;;;;;;;;21.70;54.70;;;;;;5451722;26;19928;-81
2024/04/08 06:40:59;;;;;;;;;;;21.70;54.80;;;;;;5452210;26;20043;-80
2024/04/08 06:43:25;;;;;;;;;;;21.70;54.90;;;;;;5452249;26;19928;-78
2024/04/08 06:45:55;;;;;;;;;;;21.70;55.00;;;;;;5451915;26;19928;-80
2024/04/08 06:48:21;;;;;;;;;;;21.70;53.70;;;;;;5451749;26;19933;-76
2024/04/08 06:50:48;;;;;;;;;;;21.80;54.70;;;;;;5451752;26;19936;-78
2024/04/08 06:53:13;;;;;;;;;;;21.80;54.90;;;;;;5451767;26;20018;-78
2024/04/08 06:55:39;;;;;;;;;;;21.90;55.20;;;;;;5451814;26;19929;-79
2024/04/08 06:58:07;;;;;;;;;;;21.80;55.10;;;;;;5451931;26;20307;-80
2024/04/08 07:00:33;;;;;;;;;;;22.30;55.10;;;;;;5451415;26;19929;-79
2024/04/08 07:03:00;;;;;;;;;;;21.10;54.10;;;;;;5450958;26;19929;-78
2024/04/08 07:05:26;;;;;;;;;;;22.00;55.00;;;;;;5451019;26;20378;-79
2024/04/08 07:07:52;;;;;;;;;;;21.80;55.10;;;;;;5451602;26;19940;-78
2024/04/08 07:10:24;;;;;;;;;;;21.90;54.80;;;;;;5450367;26;20399;-79
2024/04/08 07:12:50;;;;;;;;;;;21.90;54.10;;;;;;5451260;26;19944;-77
2024/04/08 07:15:19;;;;;;;;;;;21.80;55.10;;;;;;5450816;26;19936;-77
2024/04/08 07:17:45;;;;;;;;;;;21.80;55.10;;;;;;5451219;26;20511;-79
2024/04/08 07:20:11;;;;;;;;;;;21.80;55.00;;;;;;5451259;26;19929;-77
2024/04/08 07:22:37;;;;;;;;;;;21.90;55.20;;;;;;5451023;26;19932;-77
2024/04/08 07:25:03;;;;;;;;;;;21.80;55.00;;;;;;5451393;26;19928;-77
2024/04/08 07:27:29;;;;;;;;;;;21.90;55.10;;;;;;5450258;26;19944;-77
2024/04/08 07:29:55;;;;;;;;;;;21.90;55.20;;;;;;5451240;26;19932;-77
2024/04/08 07:32:20;;;;;;;;;;;21.80;55.30;;;;;;5450980;26;19936;-77
2024/04/08 07:34:47;;;;;;;;;;;21.90;55.40;;;;;;5451331;26;19929;-77
2024/04/08 07:37:13;;;;;;;;;;;21.90;55.30;;;;;;5451332;26;19944;-77
2024/04/08 07:39:39;;;;;;;;;;;21.90;55.20;;;;;;5451385;26;19962;-77
2024/04/08 07:42:05;;;;;;;;;;;21.90;55.30;;;;;;5451244;26;19935;-77
2024/04/08 07:44:31;;;;;;;;;;;21.90;55.20;;;;;;5451051;26;19929;-77
2024/04/08 07:46:57;;;;;;;;;;;21.90;55.60;;;;;;5418607;26;20299;-77
2024/04/08 07:49:22;;;;;;;;;;;21.90;55.50;;;;;;5419075;26;19940;-76
2024/04/08 07:51:48;;;;;;;;;;;21.90;55.40;;;;;;5451409;26;19928;-76
2024/04/08 07:54:14;;;;;;;;;;;21.90;55.40;;;;;;5450905;26;19940;-77
2024/04/08 07:56:40;;;;;;;;;;;21.90;55.30;;;;;;5450731;26;19929;-80
2024/04/08 07:59:06;;;;;;;;;;;21.90;55.60;;;;;;5450825;26;19932;-77
2024/04/08 08:01:32;;;;;;;;;;;21.90;54.80;;;;;;5450273;26;20026;-75
2024/04/08 08:03:58;;;;;;;;;;;22.30;55.50;;;;;;5452760;26;20001;-80
2024/04/08 08:06:23;;;;;;;;;;;22.00;55.60;;;;;;5451162;26;19936;-76
2024/04/08 08:08:49;;;;;;;;;;;22.00;55.60;;;;;;5451481;26;19939;-80
2024/04/08 08:11:14;;;;;;;;;;;22.50;55.70;;;;;;5450940;26;20284;-80
2024/04/08 08:13:40;;;;;;;;;;;22.00;55.80;;;;;;5450859;26;19928;-80
2024/04/08 08:16:05;;;;;;;;;;;22.00;55.70;;;;;;5450989;26;19929;-80
2024/04/08 08:18:31;;;;;;;;;;;22.00;55.80;;;;;;5418497;26;20029;-79
2024/04/08 08:20:58;;;;;;;;;;;22.00;55.80;;;;;;5450459;26;19928;-80
2024/04/08 08:23:23;;;;;;;;;;;22.10;55.90;;;;;;5450500;26;20419;-80
2024/04/08 08:25:49;;;;;;;;;;;22.10;55.80;;;;;;5449708;26;19929;-79
2024/04/08 08:28:15;;;;;;;;;;;22.10;56.30;;;;;;5448610;26;19929;-79
2024/04/08 08:30:40;;;;;;;;;;;22.10;55.90;;;;;;5450399;26;20327;-80
2024/04/08 08:33:06;;;;;;;;;;;22.10;56.10;;;;;;5450063;26;20212;-81
2024/04/08 08:35:32;;;;;;;;;;;22.10;56.20;;;;;;5450323;26;19961;-80
2024/04/08 08:37:57;;;;;;;;;;;22.20;56.30;;;;;;5451010;26;19929;-80
2024/04/08 08:40:23;;;;;;;;;;;22.20;57.10;;;;;;5452577;26;19943;-80
2024/04/08 08:42:50;;;;;;;;;;;22.20;56.50;;;;;;5453879;26;19978;-80
2024/04/08 08:45:16;;;;;;;;;;;22.20;56.20;;;;;;5453585;26;19937;-80
2024/04/08 08:47:42;;;;;;;;;;;22.20;56.20;;;;;;5453485;26;20419;-80
2024/04/08 08:50:08;;;;;;;;;;;22.20;56.30;;;;;;5453940;26;19934;-80
2024/04/08 08:52:34;;;;;;;;;;;22.30;56.60;;;;;;5453615;26;20339;-80
2024/04/08 08:54:59;;;;;;;;;;;22.30;56.30;;;;;;5453587;26;19935;-81
2024/04/08 08:57:25;;;;;;;;;;;22.40;56.30;;;;;;5453992;26;19936;-79
2024/04/08 08:59:51;;;;;;;;;;;22.40;56.20;;;;;;5452349;26;19936;-80
2024/04/08 09:02:16;;;;;;;;;;;22.50;55.50;;;;;;5453284;26;19937;-76
2024/04/08 09:04:42;;;;;;;;;;;22.50;56.20;;;;;;5453992;26;20301;-79
2024/04/08 09:07:08;;;;;;;;;;;22.50;56.10;;;;;;5453137;26;19996;-78
2024/04/08 09:09:33;;;;;;;;;;;22.60;56.20;;;;;;5453401;26;19932;-80
2024/04/08 09:11:59;;;;;;;;;;;22.60;56.10;;;;;;5453337;26;19932;-80
2024/04/08 09:14:27;;;;;;;;;;;22.60;56.10;;;;;;5453238;26;19935;-80
2024/04/08 09:17:03;;;;;;;;;;;22.70;56.10;;;;;;5452546;26;19973;-80
2024/04/08 09:19:28;;;;;;;;;;;22.70;56.10;;;;;;5453413;26;19960;-80
2024/04/08 09:21:54;;;;;;;;;;;22.70;56.40;;;;;;5453021;26;19940;-79
2024/04/08 09:24:19;;;;;;;;;;;22.80;56.40;;;;;;5452876;26;19939;-79
2024/04/08 09:26:45;;;;;;;;;;;22.90;56.40;;;;;;5453336;26;19963;-79
2024/04/08 09:29:10;;;;;;;;;;;22.80;56.10;;;;;;5452924;26;19936;-79
2024/04/08 09:31:36;;;;;;;;;;;22.90;56.60;;;;;;5452727;26;19997;-80
2024/04/08 09:34:01;;;;;;;;;;;22.90;56.50;;;;;;5421462;26;19960;-80
2024/04/08 09:36:27;;;;;;;;;;;23.00;56.40;;;;;;5452474;26;19935;-79
2024/04/08 09:38:53;;;;;;;;;;;23.00;56.30;;;;;;5452949;26;20247;-80
2024/04/08 09:41:20;;;;;;;;;;;23.00;56.20;;;;;;5452686;26;19928;-80
2024/04/08 09:43:45;;;;;;;;;;;23.00;56.20;;;;;;5452797;26;19981;-80
2024/04/08 09:46:11;;;;;;;;;;;23.10;56.00;;;;;;5453063;26;19929;-82
2024/04/08 09:48:37;;;;;;;;;;;23.10;56.00;;;;;;5452289;26;19929;-80
2024/04/08 09:51:05;;;;;;;;;;;23.20;56.20;;;;;;5451842;26;19929;-80
2024/04/08 09:53:33;;;;;;;;;;;23.30;55.80;;;;;;5452663;26;19932;-80
2024/04/08 09:56:02;;;;;;;;;;;23.40;55.80;;;;;;5452588;26;20250;-80
2024/04/08 09:58:29;;;;;;;;;;;23.30;55.60;;;;;;5452370;26;19936;-80
2024/04/08 10:00:55;;;;;;;;;;;23.40;55.70;;;;;;5452113;26;20223;-78
2024/04/08 10:03:24;;;;;;;;;;;23.70;55.40;;;;;;5452647;26;19928;-78
2024/04/08 10:05:49;;;;;;;;;;;23.40;55.40;;;;;;5452602;26;19946;-78
2024/04/08 10:08:15;;;;;;;;;;;23.40;55.80;;;;;;5452344;26;19998;-78
2024/04/08 10:10:40;;;;;;;;;;;23.00;55.50;;;;;;5452683;26;20259;-78
2024/04/08 10:13:07;;;;;;;;;;;23.50;55.60;;;;;;5452395;26;19928;-78
2024/04/08 10:15:34;;;;;;;;;;;23.50;55.40;;;;;;5452434;26;19928;-81
2024/04/08 10:17:59;;;;;;;;;;;23.50;55.30;;;;;;5452189;26;20327;-78
2024/04/08 10:20:25;;;;;;;;;;;23.60;55.30;;;;;;5452553;26;19962;-78
2024/04/08 10:22:52;;;;;;;;;;;23.70;55.00;;;;;;5454167;26;19928;-79
2024/04/08 10:25:30;;;;;;;;;;;23.80;54.80;;;;;;5453988;26;19944;-83
2024/04/08 10:28:14;;;;;;;;;;;23.70;54.10;;;;;;5456215;26;19936;-79
2024/04/08 10:30:42;;;;;;;;;;;23.70;54.00;;;;;;5452934;26;20000;-77
2024/04/08 10:33:07;;;;;;;;;;;23.80;55.00;;;;;;5451016;26;19929;-77
2024/04/08 10:35:33;;;;;;;;;;;23.80;54.90;;;;;;5452241;26;19928;-77
2024/04/08 10:37:59;;;;;;;;;;;23.80;55.20;;;;;;5452573;26;19936;-76
2024/04/08 10:40:24;;;;;;;;;;;24.30;55.50;;;;;;5452328;26;19928;-76
2024/04/08 10:42:51;;;;;;;;;;;23.80;55.10;;;;;;5452042;26;19929;-77
2024/04/08 10:45:17;;;;;;;;;;;23.90;54.90;;;;;;5451978;26;19928;-77
2024/04/08 10:47:42;;;;;;;;;;;23.90;55.10;;;;;;5452061;26;20295;-77
2024/04/08 10:50:09;;;;;;;;;;;23.90;55.00;;;;;;5452322;26;19928;-76
2024/04/08 10:52:35;;;;;;;;;;;23.90;55.10;;;;;;5452100;26;19933;-76
2024/04/08 10:55:01;;;;;;;;;;;23.90;55.10;;;;;;5451979;26;19944;-76
2024/04/08 10:57:26;;;;;;;;;;;23.80;55.30;;;;;;5451997;26;19928;-76
2024/04/08 10:59:52;;;;;;;;;;;23.80;55.40;;;;;;5452258;26;20320;-76
2024/04/08 11:02:18;;;;;;;;;;;23.90;54.90;;;;;;5450286;26;20337;-77
2024/04/08 11:04:44;;;;;;;;;;;23.80;55.90;;;;;;5451341;26;19933;-76
2024/04/08 11:07:10;;;;;;;;;;;23.80;55.30;;;;;;5451629;26;20321;-76
2024/04/08 11:09:36;;;;;;;;;;;23.80;55.50;;;;;;5451507;26;19935;-76
2024/04/08 11:12:04;;;;;;;;;;;23.90;55.50;;;;;;5451683;26;19929;-76
2024/04/08 11:14:30;;;;;;;;;;;23.90;54.70;;;;;;5451333;26;19929;-77
2024/04/08 11:16:59;;;;;;;;;;;23.90;55.30;;;;;;5451838;26;19929;-76
2024/04/08 11:19:31;;;;;;;;;;;24.00;55.30;;;;;;5451277;26;19936;-76
2024/04/08 11:21:57;;;;;;;;;;;24.00;55.30;;;;;;5451545;26;19936;-76
2024/04/08 11:24:22;;;;;;;;;;;24.00;55.40;;;;;;5451227;26;19929;-76
2024/04/08 11:26:51;;;;;;;;;;;24.00;55.30;;;;;;5451709;26;20001;-76
2024/04/08 11:29:17;;;;;;;;;;;24.00;54.70;;;;;;5451746;26;19932;-77
2024/04/08 11:31:42;;;;;;;;;;;24.00;55.40;;;;;;5450975;26;19928;-76
2024/04/08 11:34:08;;;;;;;;;;;24.00;55.40;;;;;;5451157;26;19935;-77
2024/04/08 11:36:33;;;;;;;;;;;24.00;55.50;;;;;;5451156;26;19928;-80
2024/04/08 11:38:59;;;;;;;;;;;23.90;55.50;;;;;;5449643;26;20307;-79
2024/04/08 11:41:24;;;;;;;;;;;24.00;55.50;;;;;;5451228;26;19929;-80
2024/04/08 11:43:50;;;;;;;;;;;23.90;55.50;;;;;;5419337;26;20255;-79
2024/04/08 11:46:15;;;;;;;;;;;23.90;55.50;;;;;;5451115;26;19997;-79
2024/04/08 11:48:44;;;;;;;;;;;23.90;55.60;;;;;;5450989;26;20239;-80
2024/04/08 11:51:10;;;;;;;;;;;24.40;55.70;;;;;;5450705;26;19928;-80
2024/04/08 11:53:35;;;;;;;;;;;23.90;55.80;;;;;;5450623;26;19928;-79
2024/04/08 11:56:02;;;;;;;;;;;23.90;55.80;;;;;;5451300;26;19935;-78
2024/04/08 11:58:27;;;;;;;;;;;23.90;55.70;;;;;;5450664;26;19936;-79
2024/04/08 12:00:53;;;;;;;;;;;23.90;55.90;;;;;;5450860;26;19932;-79
2024/04/08 12:03:18;;;;;;;;;;;24.00;55.40;;;;;;5450502;26;19928;-79
2024/04/08 12:05:44;;;;;;;;;;;24.40;56.40;;;;;;5450867;26;19997;-79
2024/04/08 12:08:09;;;;;;;;;;;23.90;56.10;;;;;;5451122;26;19936;-78
2024/04/08 12:10:35;;;;;;;;;;;23.90;56.10;;;;;;5450960;26;20000;-78
2024/04/08 12:13:13;;;;;;;;;;;23.90;55.90;;;;;;5451043;26;19936;-78
2024/04/08 12:15:38;;;;;;;;;;;23.90;55.40;;;;;;5454481;26;20252;-78
2024/04/08 12:18:04;;;;;;;;;;;23.90;56.00;;;;;;5422324;26;19937;-77
2024/04/08 12:20:29;;;;;;;;;;;23.80;55.80;;;;;;5454150;26;19940;-77
2024/04/08 12:22:55;;;;;;;;;;;23.90;56.20;;;;;;5454026;26;20000;-77
2024/04/08 12:25:20;;;;;;;;;;;23.90;56.20;;;;;;5454936;26;19932;-77
2024/04/08 12:27:46;;;;;;;;;;;23.90;56.20;;;;;;5422390;26;19970;-77
2024/04/08 12:30:11;;;;;;;;;;;23.90;56.20;;;;;;5453887;26;19929;-77
2024/04/08 12:32:37;;;;;;;;;;;23.80;56.00;;;;;;5453817;26;19928;-78
2024/04/08 12:35:02;;;;;;;;;;;23.90;56.10;;;;;;5453882;26;19933;-78
2024/04/08 12:37:28;;;;;;;;;;;23.90;55.90;;;;;;5453870;26;19960;-78
2024/04/08 12:39:53;;;;;;;;;;;23.90;56.10;;;;;;5453721;26;20387;-78
2024/04/08 12:42:19;;;;;;;;;;;23.90;56.10;;;;;;5453639;26;19932;-78
2024/04/08 12:44:44;;;;;;;;;;;23.90;56.10;;;;;;5453996;26;20320;-79
2024/04/08 12:47:10;;;;;;;;;;;23.90;56.00;;;;;;5453712;26;19997;-78
2024/04/08 12:49:35;;;;;;;;;;;23.90;56.10;;;;;;5452719;26;20368;-78
2024/04/08 12:52:01;;;;;;;;;;;23.90;56.00;;;;;;5453717;26;19928;-78
2024/04/08 12:54:26;;;;;;;;;;;24.00;55.90;;;;;;5454119;26;19929;-77
2024/04/08 12:56:52;;;;;;;;;;;24.00;55.70;;;;;;5452716;26;19929;-79
2024/04/08 12:59:17;;;;;;;;;;;24.10;55.90;;;;;;5422195;26;19997;-77
2024/04/08 13:01:43;;;;;;;;;;;24.10;54.80;;;;;;5453041;26;19928;-79
2024/04/08 13:04:08;;;;;;;;;;;24.10;55.70;;;;;;5454017;26;19929;-78
2024/04/08 13:06:34;;;;;;;;;;;24.10;55.70;;;;;;5453890;26;19996;-78
2024/04/08 13:08:59;;;;;;;;;;;24.10;56.10;;;;;;5453810;26;20286;-78
2024/04/08 13:11:25;;;;;;;;;;;24.10;55.40;;;;;;5452614;26;19935;-79
2024/04/08 13:13:50;;;;;;;;;;;24.10;55.50;;;;;;5453501;26;19956;-79
2024/04/08 13:16:16;;;;;;;;;;;24.10;55.60;;;;;;5453577;26;19956;-79
2024/04/08 13:18:42;;;;;;;;;;;24.10;55.50;;;;;;5453287;26;19961;-79
2024/04/08 13:21:08;;;;;;;;;;;24.10;55.40;;;;;;5454085;26;19975;-77
2024/04/08 13:23:33;;;;;;;;;;;24.10;55.60;;;;;;5453375;26;19936;-77
2024/04/08 13:25:59;;;;;;;;;;;24.10;55.80;;;;;;5420475;26;20002;-79
2024/04/08 13:28:24;;;;;;;;;;;24.10;55.40;;;;;;5453435;26;19929;-78
2024/04/08 13:30:50;;;;;;;;;;;24.10;55.50;;;;;;5453131;26;20355;-79
2024/04/08 13:33:15;;;;;;;;;;;24.30;55.40;;;;;;5452472;26;19935;-76
2024/04/08 13:35:41;;;;;;;;;;;24.50;54.70;;;;;;5452880;26;19929;-76
2024/04/08 13:38:09;;;;;;;;;;;24.60;54.50;;;;;;5453308;26;20274;-77
2024/04/08 13:40:35;;;;;;;;;;;24.70;53.50;;;;;;5453058;26;19928;-77
2024/04/08 13:43:00;;;;;;;;;;;24.70;54.10;;;;;;5452807;26;19957;-77
2024/04/08 13:45:26;;;;;;;;;;;24.70;54.20;;;;;;5452885;26;19928;-77
2024/04/08 13:47:52;;;;;;;;;;;24.80;53.80;;;;;;5453112;26;19928;-77
2024/04/08 13:50:17;;;;;;;;;;;24.90;53.60;;;;;;5453543;26;20027;-77
2024/04/08 13:52:43;;;;;;;;;;;25.30;53.70;;;;;;5453045;26;19980;-76
2024/04/08 13:55:08;;;;;;;;;;;25.00;53.40;;;;;;5452954;26;19955;-79
2024/04/08 13:57:36;;;;;;;;;;;25.10;53.10;;;;;;5452856;26;19936;-77
2024/04/08 14:00:06;;;;;;;;;;;25.20;53.20;;;;;;5421326;26;19928;-77
2024/04/08 14:02:31;;;;;;;;;;;25.20;52.40;;;;;;5452354;26;19935;-77
2024/04/08 14:04:57;;;;;;;;;;;25.10;53.10;;;;;;5452560;26;19928;-77
2024/04/08 14:07:22;;;;;;;;;;;25.10;53.00;;;;;;5452294;26;19978;-77
2024/04/08 14:09:48;;;;;;;;;;;25.00;53.00;;;;;;5420611;26;19928;-77
2024/04/08 14:12:13;;;;;;;;;;;24.90;53.10;;;;;;5452203;26;20382;-77
2024/04/08 14:14:39;;;;;;;;;;;24.90;53.50;;;;;;5452777;26;20266;-77